createdAt,value
2022-09-17T00:00:52.455Z,79.34
2022-09-17T00:03:19.015Z,79.05
2022-09-17T00:05:45.435Z,79.05
2022-09-17T00:08:14.893Z,79.29
2022-09-17T00:10:43.622Z,79.66
2022-09-17T00:13:11.853Z,79.53
2022-09-17T00:15:43.869Z,79.81
2022-09-17T00:18:11.260Z,80.02
2022-09-17T00:20:39.687Z,80.46
2022-09-17T00:23:06.897Z,80.47
2022-09-17T00:25:33.389Z,80.29
2022-09-17T00:27:59.783Z,79.86
2022-09-17T00:30:26.172Z,79.82
2022-09-17T00:32:53.128Z,79.67
2022-09-17T00:35:19.525Z,79.56
2022-09-17T00:37:46.031Z,79.33
2022-09-17T00:40:12.462Z,79.05
2022-09-17T00:42:38.964Z,79.28
2022-09-17T00:45:05.835Z,79.52
2022-09-17T00:47:37.429Z,79.47
2022-09-17T00:50:09.446Z,79.40
2022-09-17T00:52:52.347Z,79.52
2022-09-17T00:55:27.518Z,79.60
2022-09-17T00:57:58.871Z,79.74
2022-09-17T01:00:27.129Z,79.72
2022-09-17T01:02:54.730Z,79.65
2022-09-17T01:05:55.098Z,79.51
2022-09-17T01:08:36.851Z,79.40
2022-09-17T01:11:35.546Z,79.98
2022-09-17T01:14:10.627Z,79.89
2022-09-17T01:17:07.605Z,79.50
2022-09-17T01:19:43.948Z,79.71
2022-09-17T01:22:19.843Z,79.53
2022-09-17T01:24:58.579Z,79.58
2022-09-17T01:27:33.804Z,79.42
2022-09-17T01:30:15.601Z,79.09
2022-09-17T01:32:52.150Z,78.72
2022-09-17T01:35:40.287Z,78.67
2022-09-17T01:38:16.277Z,78.46
2022-09-17T01:40:51.026Z,78.46
2022-09-17T01:43:34.831Z,77.78
2022-09-17T01:46:32.081Z,77.79
2022-09-17T01:49:05.923Z,76.91
2022-09-17T01:51:38.892Z,76.52
2022-09-17T01:54:31.073Z,76.20
2022-09-17T01:57:14.467Z,76.18
2022-09-17T02:00:02.368Z,75.45
2022-09-17T02:02:44.010Z,75.67
2022-09-17T02:05:36.434Z,74.74
2022-09-17T02:08:10.311Z,75.02
2022-09-17T02:10:48.048Z,74.56
2022-09-17T02:13:21.583Z,74.57
2022-09-17T02:15:55.625Z,74.52
2022-09-17T02:18:45.628Z,74.88
2022-09-17T02:21:17.152Z,74.78
2022-09-17T02:24:00.773Z,75.01
2022-09-17T02:26:27.939Z,75.10
2022-09-17T02:28:59.727Z,74.85
2022-09-17T02:31:26.446Z,75.31
2022-09-17T02:34:01.450Z,75.53
2022-09-17T02:36:28.519Z,75.21
2022-09-17T02:39:01.543Z,75.53
2022-09-17T02:41:58.214Z,75.79
2022-09-17T02:44:55.753Z,76.04
2022-09-17T02:47:34.019Z,76.02
2022-09-17T02:50:04.698Z,76.14
2022-09-17T02:53:05.020Z,76.50
2022-09-17T02:56:10.478Z,76.64
2022-09-17T02:59:02.339Z,77.19
2022-09-17T03:01:35.684Z,77.64
2022-09-17T03:04:06.426Z,78.01
2022-09-17T03:06:32.877Z,78.00
2022-09-17T03:08:59.274Z,77.98
2022-09-17T03:11:25.707Z,78.22
2022-09-17T03:13:52.074Z,78.52
2022-09-17T03:16:18.493Z,78.89
2022-09-17T03:18:44.927Z,79.01
2022-09-17T03:21:12.499Z,78.88
2022-09-17T03:23:39.527Z,79.12
2022-09-17T03:26:06.086Z,79.80
2022-09-17T03:28:32.603Z,79.57
2022-09-17T03:30:59.093Z,79.81
2022-09-17T03:33:25.626Z,79.66
2022-09-17T03:35:52.058Z,79.97
2022-09-17T03:38:18.478Z,79.98
2022-09-17T03:40:44.873Z,79.78
2022-09-17T03:43:11.292Z,80.16
2022-09-17T03:45:37.815Z,80.17
2022-09-17T03:48:04.327Z,80.22
2022-09-17T03:50:30.744Z,80.62
2022-09-17T03:52:57.091Z,80.96
2022-09-17T03:55:23.475Z,81.07
2022-09-17T03:57:51.249Z,81.23
2022-09-17T04:00:17.722Z,80.95
2022-09-17T04:02:44.399Z,81.95
2022-09-17T04:05:10.896Z,81.65
2022-09-17T04:07:37.315Z,81.99
2022-09-17T04:10:05.257Z,81.74
2022-09-17T04:12:31.890Z,81.75
2022-09-17T04:14:58.315Z,81.81
2022-09-17T04:17:24.682Z,81.85
2022-09-17T04:19:51.144Z,81.79
2022-09-17T04:22:17.495Z,81.73
2022-09-17T04:24:43.872Z,81.27
2022-09-17T04:27:10.376Z,80.77
2022-09-17T04:29:36.806Z,80.73
2022-09-17T04:32:03.589Z,80.55
2022-09-17T04:34:30.636Z,80.51
2022-09-17T04:36:57.003Z,80.84
2022-09-17T04:39:23.462Z,80.79
2022-09-17T04:41:49.811Z,80.29
2022-09-17T04:44:16.190Z,80.94
2022-09-17T04:46:42.576Z,80.78
2022-09-17T04:49:08.965Z,80.71
2022-09-17T04:51:35.346Z,80.74
2022-09-17T04:54:01.728Z,81.08
2022-09-17T04:56:28.168Z,81.47
2022-09-17T04:58:54.530Z,81.31
2022-09-17T05:01:21.002Z,80.90
2022-09-17T05:03:47.439Z,81.18
2022-09-17T05:06:13.935Z,81.32
2022-09-17T05:08:40.403Z,81.32
2022-09-17T05:11:09.091Z,80.98
2022-09-17T05:13:35.715Z,81.93
2022-09-17T05:16:02.334Z,81.79
2022-09-17T05:18:29.927Z,81.44
2022-09-17T05:20:56.292Z,81.68
2022-09-17T05:23:22.722Z,81.82
2022-09-17T05:25:49.182Z,81.36
2022-09-17T05:28:15.535Z,81.30
2022-09-17T05:30:42.814Z,81.64
2022-09-17T05:33:09.967Z,80.74
2022-09-17T05:35:36.719Z,80.67
2022-09-17T05:38:05.550Z,80.71
2022-09-17T05:40:33.052Z,80.17
2022-09-17T05:43:04.633Z,80.27
2022-09-17T05:45:33.363Z,79.95
2022-09-17T05:48:01.842Z,79.63
2022-09-17T05:50:29.726Z,79.49
2022-09-17T05:52:56.584Z,79.58
2022-09-17T05:55:24.222Z,79.90
2022-09-17T05:57:51.320Z,79.59
2022-09-17T06:00:18.994Z,79.46
2022-09-17T06:02:46.875Z,79.80
2022-09-17T06:05:13.323Z,80.21
2022-09-17T06:07:39.943Z,79.63
2022-09-17T06:10:08.247Z,80.29
2022-09-17T06:12:35.741Z,80.17
2022-09-17T06:15:06.334Z,80.13
2022-09-17T06:17:34.920Z,80.09
2022-09-17T06:20:02.059Z,80.38
2022-09-17T06:22:31.027Z,80.60
2022-09-17T06:24:57.729Z,80.70
2022-09-17T06:27:24.200Z,80.59
2022-09-17T06:29:50.579Z,80.43
2022-09-17T06:32:17.062Z,80.65
2022-09-17T06:34:43.879Z,81.01
2022-09-17T06:37:10.403Z,80.86
2022-09-17T06:39:36.836Z,81.19
2022-09-17T06:42:03.317Z,80.99
2022-09-17T06:44:29.663Z,81.56
2022-09-17T06:46:56.465Z,80.76
2022-09-17T06:49:23.003Z,80.56
2022-09-17T06:51:49.388Z,79.83
2022-09-17T06:54:15.969Z,79.94
2022-09-17T06:56:43.988Z,79.91
2022-09-17T06:59:10.394Z,79.34
2022-09-17T07:01:36.869Z,78.13
2022-09-17T07:04:03.300Z,78.30
2022-09-17T07:06:29.690Z,77.33
2022-09-17T07:08:56.072Z,78.08
2022-09-17T07:11:22.486Z,76.44
2022-09-17T07:13:48.883Z,76.19
2022-09-17T07:16:15.470Z,76.03
2022-09-17T07:18:41.988Z,75.83
2022-09-17T07:23:46.627Z,76.59
2022-09-17T07:26:14.637Z,75.77
2022-09-17T07:28:41.745Z,75.63
2022-09-17T07:31:13.705Z,75.75
2022-09-17T07:33:42.367Z,75.04
2022-09-17T07:36:12.129Z,74.82
2022-09-17T07:38:39.573Z,74.24
2022-09-17T07:41:09.561Z,74.53
2022-09-17T07:43:36.272Z,75.03
2022-09-17T07:46:05.176Z,74.50
2022-09-17T07:48:32.482Z,74.97
2022-09-17T07:50:58.994Z,74.42
2022-09-17T07:53:26.060Z,73.80
2022-09-17T07:55:57.781Z,72.93
2022-09-17T07:58:29.398Z,72.18
2022-09-17T08:01:08.300Z,72.14
2022-09-17T08:03:35.549Z,71.32
2022-09-17T08:06:06.994Z,71.96
2022-09-17T08:08:35.847Z,71.80
2022-09-17T08:11:09.917Z,72.34
2022-09-17T08:13:37.315Z,73.32
2022-09-17T08:16:13.193Z,71.17
2022-09-17T08:18:40.717Z,71.81
2022-09-17T08:21:09.726Z,69.74
2022-09-17T08:23:38.692Z,69.99
2022-09-17T08:26:08.589Z,72.89
2022-09-17T08:28:35.894Z,74.78
2022-09-17T08:31:08.306Z,74.50
2022-09-17T08:33:40.022Z,76.98
2022-09-17T08:36:08.538Z,76.71
2022-09-17T08:38:38.420Z,78.67
2022-09-17T08:41:11.379Z,79.20
2022-09-17T08:43:55.477Z,77.35
2022-09-17T08:46:23.857Z,75.62
2022-09-17T08:49:15.396Z,76.29
2022-09-17T08:52:06.020Z,74.63
2022-09-17T08:54:35.247Z,72.54
2022-09-17T08:57:24.979Z,73.63
2022-09-17T09:00:11.314Z,73.74
2022-09-17T09:02:50.927Z,73.03
2022-09-17T09:05:22.829Z,70.91
2022-09-17T09:07:55.156Z,69.55
2022-09-17T09:10:31.983Z,70.21
2022-09-17T09:13:00.619Z,68.99
2022-09-17T09:15:42.392Z,68.57
2022-09-17T09:18:24.098Z,69.61
2022-09-17T09:20:58.927Z,68.04
2022-09-17T09:24:03.178Z,67.43
2022-09-17T09:26:45.104Z,66.61
2022-09-17T09:29:29.983Z,66.81
2022-09-17T09:32:22.916Z,67.24
2022-09-17T09:34:50.533Z,66.71
2022-09-17T09:37:24.873Z,67.61
2022-09-17T09:39:54.084Z,67.51
2022-09-17T09:42:29.365Z,66.74
2022-09-17T09:45:07.252Z,67.48
2022-09-17T09:47:54.811Z,71.93
2022-09-17T09:51:05.832Z,75.37
2022-09-17T09:53:41.986Z,77.20
2022-09-17T09:56:47.911Z,78.04
2022-09-17T09:59:14.346Z,78.11
2022-09-17T10:01:42.885Z,79.61
2022-09-17T10:04:24.378Z,80.21
2022-09-17T10:06:53.759Z,81.06
2022-09-17T10:09:22.560Z,82.33
2022-09-17T10:12:12.301Z,81.87
2022-09-17T10:14:40.763Z,83.48
2022-09-17T10:17:18.054Z,83.05
2022-09-17T10:19:46.143Z,83.55
2022-09-17T10:22:24.506Z,82.63
2022-09-17T10:24:53.325Z,82.30
2022-09-17T10:27:23.131Z,83.41
2022-09-17T10:29:55.058Z,82.97
2022-09-17T10:32:22.779Z,83.21
2022-09-17T10:34:58.344Z,83.32
2022-09-17T10:37:55.438Z,82.22
2022-09-17T10:40:27.397Z,81.76
2022-09-17T10:43:14.257Z,81.30
2022-09-17T10:45:55.983Z,82.01
2022-09-17T10:48:22.805Z,79.67
2022-09-17T10:50:56.762Z,79.03
2022-09-17T10:53:25.736Z,78.46
2022-09-17T10:56:19.311Z,77.33
2022-09-17T10:59:05.066Z,78.91
2022-09-17T11:01:52.036Z,76.15
2022-09-17T11:04:31.431Z,73.64
2022-09-17T11:07:20.208Z,74.15
2022-09-17T11:10:04.662Z,72.30
2022-09-17T11:12:42.061Z,71.84
2022-09-17T11:15:25.280Z,70.68
2022-09-17T11:18:19.886Z,69.34
2022-09-17T11:21:04.261Z,69.44
2022-09-17T11:23:40.243Z,69.32
2022-09-17T11:26:18.663Z,68.50
2022-09-17T11:29:10.114Z,68.33
2022-09-17T11:31:59.574Z,65.89
2022-09-17T11:34:32.372Z,65.88
2022-09-17T11:37:09.160Z,63.47
2022-09-17T11:39:59.454Z,63.35
2022-09-17T11:42:32.501Z,62.49
2022-09-17T11:45:25.781Z,63.10
2022-09-17T11:48:18.074Z,59.78
2022-09-17T11:50:50.388Z,59.55
2022-09-17T11:53:59.865Z,58.82
2022-09-17T11:56:34.947Z,59.12
2022-09-17T11:59:34.843Z,59.03
2022-09-17T12:02:23.014Z,59.54
2022-09-17T12:05:12.226Z,59.89
2022-09-17T12:07:50.992Z,67.28
2022-09-17T12:10:36.324Z,70.28
2022-09-17T12:13:13.650Z,73.71
2022-09-17T12:15:45.588Z,74.20
2022-09-17T12:18:32.351Z,76.79
2022-09-17T12:21:02.963Z,79.14
2022-09-17T12:23:37.162Z,79.56
2022-09-17T12:26:32.289Z,81.24
2022-09-17T12:29:08.442Z,83.88
2022-09-17T12:32:04.009Z,83.09
2022-09-17T12:35:07.916Z,83.01
2022-09-17T12:37:52.995Z,81.68
2022-09-17T12:41:00.891Z,80.70
2022-09-17T12:43:28.765Z,80.03
2022-09-17T12:46:21.456Z,81.42
2022-09-17T12:49:25.712Z,80.70
2022-09-17T12:51:56.772Z,80.35
2022-09-17T12:55:07.829Z,78.94
2022-09-17T12:57:44.336Z,78.17
2022-09-17T13:00:15.858Z,76.95
2022-09-17T13:02:49.530Z,76.11
2022-09-17T13:05:55.022Z,76.77
2022-09-17T13:08:43.374Z,77.62
2022-09-17T13:11:21.939Z,77.02
2022-09-17T13:14:19.462Z,79.02
2022-09-17T13:17:01.219Z,78.03
2022-09-17T13:19:30.593Z,75.90
2022-09-17T13:22:20.634Z,75.85
2022-09-17T13:25:00.915Z,72.89
2022-09-17T13:27:28.021Z,74.29
2022-09-17T13:29:54.336Z,71.29
2022-09-17T13:32:33.214Z,73.54
2022-09-17T13:35:11.589Z,72.87
2022-09-17T13:37:41.166Z,72.01
2022-09-17T13:40:23.592Z,69.78
2022-09-17T13:42:56.302Z,70.24
2022-09-17T13:45:24.462Z,67.16
2022-09-17T13:48:05.177Z,70.04
2022-09-17T13:50:35.040Z,69.90
2022-09-17T13:53:14.296Z,71.05
2022-09-17T13:55:42.702Z,70.92
2022-09-17T13:58:22.164Z,71.05
2022-09-17T14:00:54.654Z,70.29
2022-09-17T14:03:41.803Z,69.59
2022-09-17T14:06:08.484Z,69.29
2022-09-17T14:08:44.078Z,69.95
2022-09-17T14:11:37.425Z,68.88
2022-09-17T14:14:07.946Z,68.79
2022-09-17T14:16:40.823Z,66.66
2022-09-17T14:19:16.991Z,68.95
2022-09-17T14:22:15.236Z,68.40
2022-09-17T14:24:44.812Z,66.51
2022-09-17T14:27:16.926Z,65.29
2022-09-17T14:30:01.338Z,67.07
2022-09-17T14:32:33.477Z,65.91
2022-09-17T14:35:15.520Z,66.71
2022-09-17T14:37:46.913Z,65.54
2022-09-17T14:40:18.737Z,64.70
2022-09-17T14:42:48.541Z,65.16
2022-09-17T14:45:21.305Z,64.50
2022-09-17T14:47:47.751Z,66.21
2022-09-17T14:50:20.756Z,65.08
2022-09-17T14:52:52.691Z,63.77
2022-09-17T14:55:24.118Z,63.29
2022-09-17T14:57:56.296Z,63.92
2022-09-17T15:00:32.833Z,62.37
2022-09-17T15:02:59.729Z,61.43
2022-09-17T15:05:35.720Z,61.73
2022-09-17T15:08:21.200Z,62.89
2022-09-17T15:11:01.665Z,63.41
2022-09-17T15:13:40.665Z,61.26
2022-09-17T15:16:13.531Z,61.41
2022-09-17T15:18:52.577Z,61.81
2022-09-17T15:21:34.620Z,58.90
2022-09-17T15:24:17.750Z,56.76
2022-09-17T15:26:48.531Z,56.12
2022-09-17T15:29:15.238Z,56.10
2022-09-17T15:31:41.933Z,56.87
2022-09-17T15:34:11.388Z,58.74
2022-09-17T15:36:38.298Z,60.12
2022-09-17T15:39:46.553Z,59.45
2022-09-17T15:42:22.091Z,59.72
2022-09-17T15:44:48.570Z,61.24
2022-09-17T15:47:34.998Z,58.76
2022-09-17T15:50:28.186Z,60.86
2022-09-17T15:53:09.910Z,58.88
2022-09-17T15:55:40.948Z,59.27
2022-09-17T15:58:27.341Z,59.41
2022-09-17T16:01:15.367Z,60.90
2022-09-17T16:03:41.902Z,61.06
2022-09-17T16:06:25.353Z,61.54
2022-09-17T16:08:57.242Z,60.66
2022-09-17T16:11:26.220Z,60.77
2022-09-17T16:13:54.547Z,61.42
2022-09-17T16:16:42.539Z,61.89
2022-09-17T16:19:10.393Z,61.81
2022-09-17T16:21:36.890Z,62.92
2022-09-17T16:24:03.708Z,63.51
2022-09-17T16:26:35.050Z,61.89
2022-09-17T16:29:18.010Z,61.99
2022-09-17T16:31:45.036Z,61.49
2022-09-17T16:34:11.547Z,62.25
2022-09-17T16:36:38.045Z,61.92
2022-09-17T16:39:05.145Z,60.43
2022-09-17T16:41:31.603Z,59.75
2022-09-17T16:43:58.407Z,59.27
2022-09-17T16:46:25.879Z,59.66
2022-09-17T16:48:52.406Z,59.33
2022-09-17T16:51:19.157Z,58.08
2022-09-17T16:53:45.784Z,58.56
2022-09-17T16:56:14.680Z,59.45
2022-09-17T16:58:41.789Z,59.64
2022-09-17T17:01:14.623Z,60.86
2022-09-17T17:03:41.961Z,61.65
2022-09-17T17:06:19.977Z,62.83
2022-09-17T17:08:46.742Z,63.71
2022-09-17T17:11:13.960Z,63.86
2022-09-17T17:13:43.035Z,65.23
2022-09-17T17:16:11.522Z,65.65
2022-09-17T17:18:38.055Z,66.60
2022-09-17T17:21:08.700Z,68.74
2022-09-17T17:23:35.713Z,69.07
2022-09-17T17:26:03.565Z,68.87
2022-09-17T17:28:35.202Z,69.66
2022-09-17T17:31:02.971Z,70.65
2022-09-17T17:33:29.796Z,70.37
2022-09-17T17:36:06.692Z,70.37
2022-09-17T17:38:34.031Z,71.30
2022-09-17T17:41:14.640Z,71.02
2022-09-17T17:43:41.907Z,71.17
2022-09-17T17:46:09.917Z,71.10
2022-09-17T17:48:37.006Z,70.90
2022-09-17T17:51:06.316Z,71.31
2022-09-17T17:53:32.974Z,72.09
2022-09-17T17:56:01.711Z,72.66
2022-09-17T17:58:28.407Z,72.60
2022-09-17T18:00:55.432Z,73.19
2022-09-17T18:03:25.131Z,73.55
2022-09-17T18:05:53.368Z,73.38
2022-09-17T18:08:19.777Z,74.14
2022-09-17T18:10:56.873Z,74.02
2022-09-17T18:13:24.268Z,74.71
2022-09-17T18:15:55.703Z,75.10
2022-09-17T18:18:23.517Z,76.00
2022-09-17T18:20:51.788Z,76.46
2022-09-17T18:23:18.344Z,77.05
2022-09-17T18:25:59.254Z,78.34
2022-09-17T18:28:27.315Z,78.95
2022-09-17T18:30:54.659Z,79.60
2022-09-17T18:33:24.776Z,79.74
2022-09-17T18:35:56.840Z,80.21
2022-09-17T18:38:24.100Z,80.25
2022-09-17T18:40:51.602Z,80.80
2022-09-17T18:43:18.256Z,80.63
2022-09-17T18:45:54.381Z,80.93
2022-09-17T18:48:21.139Z,81.25
2022-09-17T18:51:04.297Z,81.55
2022-09-17T18:53:33.249Z,81.55
2022-09-17T18:56:04.694Z,81.61
2022-09-17T18:58:31.084Z,82.14
2022-09-17T19:00:57.628Z,82.37
2022-09-17T19:03:24.136Z,82.49
2022-09-17T19:05:50.555Z,82.84
2022-09-17T19:08:22.518Z,82.84
2022-09-17T19:10:52.871Z,83.23
2022-09-17T19:13:19.660Z,83.64
2022-09-17T19:15:46.407Z,83.58
2022-09-17T19:18:12.846Z,83.70
2022-09-17T19:20:39.750Z,83.57
2022-09-17T19:23:06.907Z,84.11
2022-09-17T19:25:36.071Z,84.44
2022-09-17T19:28:06.711Z,84.29
2022-09-17T19:30:33.478Z,84.42
2022-09-17T19:33:00.339Z,84.24
2022-09-17T19:35:27.433Z,84.52
2022-09-17T19:37:58.147Z,84.63
2022-09-17T19:40:24.843Z,84.51
2022-09-17T19:42:55.770Z,84.30
2022-09-17T19:45:23.326Z,84.44
2022-09-17T19:47:51.274Z,84.68
2022-09-17T19:50:18.540Z,85.31
2022-09-17T19:52:45.055Z,85.09
2022-09-17T19:55:13.060Z,85.41
2022-09-17T19:57:40.331Z,85.79
2022-09-17T20:00:09.216Z,86.04
2022-09-17T20:02:35.691Z,86.04
2022-09-17T20:05:02.232Z,86.10
2022-09-17T20:07:30.058Z,85.97
2022-09-17T20:09:56.485Z,85.97
2022-09-17T20:12:22.934Z,85.84
2022-09-17T20:14:49.329Z,85.84
2022-09-17T20:17:15.726Z,85.86
2022-09-17T20:19:42.469Z,85.78
2022-09-17T20:22:08.922Z,85.84
2022-09-17T20:24:35.391Z,85.80
2022-09-17T20:27:01.806Z,86.12
2022-09-17T20:29:28.240Z,86.04
2022-09-17T20:31:54.712Z,85.92
2022-09-17T20:34:21.101Z,86.09
2022-09-17T20:36:47.537Z,85.91
2022-09-17T20:39:19.705Z,85.94
2022-09-17T20:41:49.002Z,85.86
2022-09-17T20:44:15.409Z,85.68
2022-09-17T20:46:41.895Z,85.46
2022-09-17T20:49:08.585Z,85.63
2022-09-17T20:51:35.261Z,85.45
2022-09-17T20:54:01.932Z,85.79
2022-09-17T20:56:32.410Z,85.58
2022-09-17T20:59:08.258Z,85.86
2022-09-17T21:01:35.783Z,85.92
2022-09-17T21:04:04.351Z,85.67
2022-09-17T21:06:36.061Z,85.65
2022-09-17T21:09:03.468Z,85.95
2022-09-17T21:11:31.385Z,85.70
2022-09-17T21:13:59.969Z,86.11
2022-09-17T21:16:26.872Z,85.98
2022-09-17T21:18:58.318Z,86.11
2022-09-17T21:21:26.012Z,85.93
2022-09-17T21:23:52.717Z,86.41
2022-09-17T21:26:24.051Z,86.79
2022-09-17T21:28:52.121Z,86.42
2022-09-17T21:31:21.511Z,86.49
2022-09-17T21:33:52.001Z,86.87
2022-09-17T21:36:20.646Z,86.72
2022-09-17T21:39:14.365Z,86.46
2022-09-17T21:41:42.966Z,86.45
2022-09-17T21:44:13.012Z,86.20
2022-09-17T21:46:40.853Z,86.26
2022-09-17T21:49:07.832Z,86.38
2022-09-17T21:51:39.174Z,86.82
2022-09-17T21:54:08.481Z,86.87
2022-09-17T21:56:35.661Z,87.19
2022-09-17T21:59:04.463Z,87.21
2022-09-17T22:01:35.698Z,87.17
2022-09-17T22:04:02.353Z,86.89
2022-09-17T22:06:31.671Z,87.12
2022-09-17T22:09:00.085Z,86.80
2022-09-17T22:11:32.002Z,86.95
2022-09-17T22:14:00.784Z,86.41
2022-09-17T22:16:30.730Z,86.94
2022-09-17T22:19:02.702Z,86.82
2022-09-17T22:21:31.191Z,87.12
2022-09-17T22:23:59.924Z,87.14
2022-09-17T22:26:29.635Z,87.17
2022-09-17T22:28:56.687Z,87.28
2022-09-17T22:31:23.228Z,87.34
2022-09-17T22:33:50.432Z,87.59
2022-09-17T22:36:19.436Z,87.82
2022-09-17T22:38:48.502Z,87.98
2022-09-17T22:41:20.407Z,88.21
2022-09-17T22:43:47.560Z,88.24
2022-09-17T22:46:23.042Z,88.36
2022-09-17T22:48:49.738Z,88.62
2022-09-17T22:51:16.599Z,88.89
2022-09-17T22:53:43.615Z,88.97
2022-09-17T22:56:12.881Z,89.24
2022-09-17T22:58:39.817Z,89.08
2022-09-17T23:01:21.191Z,89.46
2022-09-17T23:03:48.899Z,88.92
2022-09-17T23:06:21.911Z,88.98
2022-09-17T23:08:48.340Z,89.01
2022-09-17T23:11:25.080Z,89.17
2022-09-17T23:13:52.062Z,89.13
2022-09-17T23:16:19.711Z,89.23
2022-09-17T23:18:46.356Z,89.28
2022-09-17T23:21:16.386Z,89.58
2022-09-17T23:23:44.709Z,89.63
2022-09-17T23:26:14.371Z,90.04
2022-09-17T23:28:41.446Z,90.28
2022-09-17T23:31:16.301Z,90.45
2022-09-17T23:33:43.141Z,90.89
2022-09-17T23:36:15.287Z,91.00
2022-09-17T23:38:43.938Z,91.24
2022-09-17T23:41:21.529Z,91.36
2022-09-17T23:43:50.574Z,91.58
2022-09-17T23:46:18.169Z,91.85
2022-09-17T23:48:45.157Z,91.87
2022-09-17T23:51:11.888Z,91.95
2022-09-17T23:53:38.402Z,92.05
2022-09-17T23:56:11.627Z,92.38
2022-09-17T23:58:38.148Z,91.92
